Time;durP1;ratioP1;P1;durP2;ratioP2;P2;SDS_P1;SDS_P2;PMS_P1;PMS_P2;Temp;Humidity;BMP_temperature;BMP_pressure;BME280_temperature;BME280_humidity;BME280_pressure;Samples;Min_cycle;Max_cycle;Signal;HPM_P1;HPM_P2
2022/11/20 00:00:48;;;;;;;9.85;5.35;;;;;;;3.46;100.00;98531.59;5099229;28;20070;-80
2022/11/20 00:03:15;;;;;;;10.13;5.88;;;;;;;3.30;100.00;98530.47;5108009;28;20071;-80
2022/11/20 00:05:42;;;;;;;8.45;5.75;;;;;;;3.43;100.00;98540.81;5097740;28;20131;-79
2022/11/20 00:08:08;;;;;;;10.02;5.50;;;;;;;3.39;100.00;98544.84;5101950;28;20066;-80
2022/11/20 00:10:37;;;;;;;8.93;5.35;;;;;;;3.42;100.00;98539.16;5099199;28;20403;-79
2022/11/20 00:13:04;;;;;;;14.00;6.57;;;;;;;3.43;100.00;98542.66;5100121;28;20043;-79
2022/11/20 00:15:32;;;;;;;9.52;5.38;;;;;;;3.52;100.00;98539.03;5099852;28;20044;-80
2022/11/20 00:17:59;;;;;;;8.57;6.03;;;;;;;3.43;100.00;98529.22;5108425;28;20039;-79
2022/11/20 00:20:25;;;;;;;15.02;6.53;;;;;;;3.45;100.00;98530.78;5105882;28;20055;-80
2022/11/20 00:22:52;;;;;;;11.95;6.03;;;;;;;3.46;100.00;98534.28;5097723;28;20040;-80
2022/11/20 00:25:19;;;;;;;11.90;6.57;;;;;;;3.56;100.00;98528.84;5089198;28;20078;-80
2022/11/20 00:27:45;;;;;;;9.15;6.13;;;;;;;3.51;100.00;98534.69;5102841;28;20544;-80
2022/11/20 00:30:12;;;;;;;10.20;6.13;;;;;;;3.40;100.00;98540.28;5107594;28;20577;-80
2022/11/20 00:32:40;;;;;;;17.73;6.47;;;;;;;3.60;100.00;98528.38;5101826;28;20044;-80
2022/11/20 00:35:07;;;;;;;9.68;5.72;;;;;;;3.65;100.00;98552.09;5109275;28;20456;-80
2022/11/20 00:37:34;;;;;;;13.98;6.50;;;;;;;3.61;100.00;98543.47;5107829;28;20036;-80
2022/11/20 00:40:00;;;;;;;18.17;7.40;;;;;;;3.60;100.00;98543.63;5105123;28;20398;-80
2022/11/20 00:42:27;;;;;;;14.40;6.40;;;;;;;3.54;100.00;98543.28;5091289;28;20082;-79
2022/11/20 00:44:53;;;;;;;15.43;6.65;;;;;;;3.44;100.00;98521.00;5108170;28;20479;-80
2022/11/20 00:47:20;;;;;;;16.17;6.35;;;;;;;3.61;100.00;98540.78;5107138;28;20060;-80
2022/11/20 00:49:48;;;;;;;15.35;7.50;;;;;;;3.66;100.00;98540.34;5105070;28;20081;-80
2022/11/20 00:52:14;;;;;;;18.30;7.30;;;;;;;3.66;100.00;98545.72;5105222;28;20058;-80
2022/11/20 00:54:41;;;;;;;13.45;6.90;;;;;;;3.70;100.00;98531.81;5105300;28;20050;-80
2022/11/20 00:57:07;;;;;;;18.55;6.88;;;;;;;3.81;100.00;98551.38;5104214;28;20698;-80
2022/11/20 00:59:34;;;;;;;18.45;7.75;;;;;;;3.64;100.00;98535.09;5098690;28;20517;-79
2022/11/20 01:02:01;;;;;;;16.27;7.78;;;;;;;3.71;100.00;98533.47;5100269;28;20046;-79
2022/11/20 01:04:27;;;;;;;19.48;7.57;;;;;;;3.67;100.00;98524.06;5109269;28;20073;-79
2022/11/20 01:06:55;;;;;;;15.98;7.10;;;;;;;3.63;100.00;98529.88;5112818;28;20047;-80
2022/11/20 01:09:22;;;;;;;13.65;7.70;;;;;;;3.66;100.00;98538.50;5105623;28;20056;-80
2022/11/20 01:11:49;;;;;;;15.75;7.75;;;;;;;3.76;100.00;98540.25;5110929;27;20035;-80
2022/11/20 01:14:20;;;;;;;18.30;7.75;;;;;;;3.61;100.00;98534.59;5108393;28;20059;-79
2022/11/20 01:16:49;;;;;;;15.50;7.63;;;;;;;3.74;100.00;98539.56;5114867;27;20055;-79
2022/11/20 01:19:18;;;;;;;20.52;8.18;;;;;;;3.72;100.00;98537.88;5109404;28;20044;-79
2022/11/20 01:21:46;;;;;;;20.13;8.48;;;;;;;3.83;100.00;98552.91;5094061;28;20044;-79
2022/11/20 01:24:16;;;;;;;17.15;8.27;;;;;;;3.82;100.00;98550.38;5093087;28;20051;-79
2022/11/20 01:26:44;;;;;;;21.85;9.38;;;;;;;3.73;100.00;98538.72;5109877;28;20057;-79
2022/11/20 01:29:14;;;;;;;18.80;9.27;;;;;;;3.74;100.00;98532.34;5102979;28;20074;-79
2022/11/20 01:31:42;;;;;;;16.17;8.13;;;;;;;3.74;100.00;98547.63;5104338;28;20056;-79
2022/11/20 01:34:12;;;;;;;22.88;9.30;;;;;;;3.66;100.00;98546.56;5107829;28;20048;-79
2022/11/20 01:36:40;;;;;;;18.77;8.50;;;;;;;3.73;100.00;98560.22;5109213;28;20043;-79
2022/11/20 01:39:10;;;;;;;17.85;9.40;;;;;;;3.94;100.00;98564.41;5106353;28;20051;-78
2022/11/20 01:44:39;;;;;;;20.05;8.88;;;;;;;3.87;100.00;98543.53;5100868;28;20455;-79
2022/11/20 01:47:09;;;;;;;19.15;9.68;;;;;;;3.88;100.00;98537.16;5090692;28;20131;-79
2022/11/20 01:49:42;;;;;;;20.15;8.57;;;;;;;3.90;100.00;98537.00;5099127;28;20051;-79
2022/11/20 01:52:16;;;;;;;19.65;8.45;;;;;;;3.96;100.00;98538.19;5090431;28;20514;-79
2022/11/20 01:54:49;;;;;;;16.90;8.15;;;;;;;3.98;100.00;98536.22;5105352;28;20645;-79
2022/11/20 01:57:18;;;;;;;20.90;10.10;;;;;;;4.04;100.00;98535.56;5113826;28;20051;-79
2022/11/20 01:59:52;;;;;;;19.50;9.52;;;;;;;3.89;100.00;98528.06;5096773;28;20072;-79
2022/11/20 02:02:19;;;;;;;20.90;9.60;;;;;;;3.85;100.00;98510.59;5104171;28;20388;-79
2022/11/20 02:04:45;;;;;;;18.27;8.82;;;;;;;4.05;100.00;98548.88;5105771;28;20589;-79
2022/11/20 02:07:13;;;;;;;20.20;9.32;;;;;;;3.97;100.00;98532.66;5108410;28;20054;-79
2022/11/20 02:09:39;;;;;;;22.75;9.40;;;;;;;3.89;100.00;98513.78;5105863;27;20040;-79
2022/11/20 02:13:42;;;;;;;21.73;9.95;;;;;;;3.80;100.00;98520.94;5094669;28;20044;-79
2022/11/20 02:14:53;;;;;;;20.50;9.23;;;;;;;4.05;100.00;98542.63;5102735;28;20067;-79
2022/11/20 02:17:20;;;;;;;20.38;8.90;;;;;;;3.99;100.00;98530.66;5099065;27;20040;-79
2022/11/20 02:19:47;;;;;;;22.30;10.02;;;;;;;3.95;100.00;98531.97;5102966;28;20646;-79
2022/11/20 02:22:19;;;;;;;23.00;10.32;;;;;;;3.98;100.00;98526.28;5101462;28;20051;-79
2022/11/20 02:24:48;;;;;;;22.77;10.75;;;;;;;3.96;100.00;98536.38;5104793;28;20601;-79
2022/11/20 02:27:17;;;;;;;21.15;10.40;;;;;;;4.04;100.00;98532.88;5100872;28;20047;-79
2022/11/20 02:29:48;;;;;;;20.95;8.73;;;;;;;4.10;100.00;98551.06;5097702;28;20048;-79
2022/11/20 02:32:19;;;;;;;21.55;9.98;;;;;;;4.05;100.00;98537.25;5103908;28;20139;-79
2022/11/20 02:34:46;;;;;;;29.55;11.05;;;;;;;4.11;100.00;98550.09;5090206;28;20040;-80
2022/11/20 02:37:13;;;;;;;21.52;10.50;;;;;;;3.98;100.00;98537.03;5098060;28;20437;-80
2022/11/20 02:39:43;;;;;;;23.63;10.30;;;;;;;4.08;100.00;98532.41;5093324;28;20059;-80
2022/11/20 02:42:11;;;;;;;23.42;9.77;;;;;;;4.04;100.00;98524.81;5108606;28;20078;-80
2022/11/20 02:44:37;;;;;;;21.92;9.68;;;;;;;4.19;100.00;98546.59;5096076;28;20066;-79
2022/11/20 02:47:04;;;;;;;20.33;9.50;;;;;;;4.27;100.00;98543.94;5094803;28;20101;-79
2022/11/20 02:49:31;;;;;;;22.77;10.75;;;;;;;4.13;100.00;98518.47;5095581;28;20621;-79
2022/11/20 02:51:57;;;;;;;19.70;9.63;;;;;;;4.25;100.00;98548.63;5102577;28;20046;-79
2022/11/20 02:54:24;;;;;;;19.80;9.68;;;;;;;4.17;100.00;98529.75;5097791;28;20040;-79
2022/11/20 02:56:51;;;;;;;14.32;7.93;;;;;;;4.29;100.00;98530.31;5101024;28;20477;-79
2022/11/20 02:59:19;;;;;;;19.15;9.45;;;;;;;4.32;100.00;98538.94;5106273;27;20044;-79
2022/11/20 03:01:46;;;;;;;17.65;9.07;;;;;;;4.24;100.00;98542.41;5104216;28;20129;-79
2022/11/20 03:04:12;;;;;;;18.40;9.07;;;;;;;4.23;100.00;98524.59;5104368;28;20055;-78
2022/11/20 03:06:39;;;;;;;18.77;9.52;;;;;;;4.19;100.00;98514.31;5110824;28;20491;-78
2022/11/20 03:09:05;;;;;;;16.63;8.73;;;;;;;4.22;100.00;98514.81;5101058;28;20051;-79
2022/11/20 03:11:32;;;;;;;16.15;8.25;;;;;;;4.32;100.00;98530.84;5107917;28;20058;-78
2022/11/20 03:14:02;;;;;;;17.10;8.68;;;;;;;4.37;100.00;98538.44;5098194;28;20089;-79
2022/11/20 03:16:31;;;;;;;17.42;9.23;;;;;;;4.20;100.00;98511.47;5109830;28;20051;-79
2022/11/20 03:18:58;;;;;;;16.73;8.77;;;;;;;4.20;100.00;98513.28;5091296;28;20042;-79
2022/11/20 03:21:24;;;;;;;15.73;8.05;;;;;;;4.22;100.00;98504.06;5098631;28;20058;-79
2022/11/20 03:23:51;;;;;;;17.10;8.13;;;;;;;4.35;100.00;98522.47;5101355;28;20079;-79
2022/11/20 03:26:22;;;;;;;16.17;7.97;;;;;;;4.29;100.00;98508.78;5109550;27;20048;-79
2022/11/20 03:28:50;;;;;;;18.45;8.45;;;;;;;4.35;100.00;98508.16;5095490;28;20116;-79
2022/11/20 03:31:20;;;;;;;18.10;8.93;;;;;;;4.42;100.00;98517.25;5099032;28;20056;-78
2022/11/20 03:33:48;;;;;;;19.40;8.75;;;;;;;4.30;100.00;98494.34;5102320;28;20047;-79
2022/11/20 03:36:16;;;;;;;14.73;8.18;;;;;;;4.31;100.00;98496.88;5107780;28;20074;-79
2022/11/20 03:38:43;;;;;;;13.93;7.72;;;;;;;4.51;100.00;98512.75;5103540;28;20051;-79
2022/11/20 03:41:11;;;;;;;14.15;7.97;;;;;;;4.49;100.00;98517.47;5104522;27;20051;-79
2022/11/20 03:43:39;;;;;;;15.85;7.70;;;;;;;4.30;100.00;98494.34;5107218;28;20688;-79
2022/11/20 03:46:06;;;;;;;13.32;6.82;;;;;;;4.45;100.00;98522.31;5099678;28;20055;-79
2022/11/20 03:48:33;;;;;;;10.10;5.88;;;;;;;4.34;100.00;98507.31;5113000;28;20184;-79
2022/11/20 03:51:12;;;;;;;10.65;6.50;;;;;;;4.50;100.00;98516.44;5096457;28;20060;-79
2022/11/20 03:53:39;;;;;;;14.05;7.00;;;;;;;4.42;100.00;98498.44;5100779;28;20070;-79
2022/11/20 03:56:06;;;;;;;11.43;5.72;;;;;;;4.47;100.00;98509.56;5103216;28;20047;-79
2022/11/20 03:58:34;;;;;;;11.38;6.10;;;;;;;4.27;100.00;98494.66;5110463;28;20060;-79
2022/11/20 04:01:05;;;;;;;8.77;4.85;;;;;;;4.31;100.00;98504.94;5108252;28;20044;-79
2022/11/20 04:03:32;;;;;;;6.40;4.18;;;;;;;4.55;100.00;98522.22;5107083;28;20498;-79
2022/11/20 04:06:03;;;;;;;6.78;3.58;;;;;;;4.36;100.00;98496.38;5110920;28;20043;-79
2022/11/20 04:08:31;;;;;;;7.90;4.40;;;;;;;4.34;100.00;98504.63;5100779;28;20121;-79
2022/11/20 04:11:08;;;;;;;5.93;3.88;;;;;;;4.44;100.00;98515.25;5105305;28;20700;-79
2022/11/20 04:13:34;;;;;;;9.38;5.10;;;;;;;4.44;100.00;98526.00;5105892;28;20047;-79
2022/11/20 04:16:01;;;;;;;6.57;4.07;;;;;;;4.44;100.00;98515.25;5110986;28;20380;-79
2022/11/20 04:18:27;;;;;;;5.75;3.63;;;;;;;4.33;100.00;98488.63;5098707;28;20061;-79
2022/11/20 04:20:54;;;;;;;6.30;3.47;;;;;;;4.30;100.00;98483.56;5100165;28;20063;-79
2022/11/20 04:23:21;;;;;;;4.93;3.53;;;;;;;4.44;100.00;98515.25;5095494;28;20058;-79
2022/11/20 04:25:49;;;;;;;5.00;3.42;;;;;;;4.38;100.00;98484.47;5094535;28;20047;-79
2022/11/20 04:28:15;;;;;;;5.70;3.35;;;;;;;4.37;100.00;98490.00;5107007;28;20043;-79
2022/11/20 04:30:42;;;;;;;4.80;3.47;;;;;;;4.58;100.00;98514.63;5105546;28;20051;-79
2022/11/20 04:33:08;;;;;;;10.32;3.58;;;;;;;4.37;100.00;98480.06;5103898;28;20058;-79
2022/11/20 04:35:35;;;;;;;4.97;3.35;;;;;;;4.57;100.00;98504.88;5099077;28;20044;-79
2022/11/20 04:38:02;;;;;;;5.00;3.30;;;;;;;4.39;100.00;98487.97;5101036;28;20096;-79
2022/11/20 04:40:29;;;;;;;5.20;3.42;;;;;;;4.45;100.00;98473.88;5105315;28;20096;-79
2022/11/20 04:42:57;;;;;;;4.28;3.35;;;;;;;4.51;100.00;98496.63;5105447;28;20693;-78
2022/11/20 04:45:24;;;;;;;6.10;3.13;;;;;;;4.43;100.00;98492.03;5106530;28;20052;-79
2022/11/20 04:47:51;;;;;;;7.50;3.38;;;;;;;4.53;100.00;98498.16;5106907;28;20723;-79
2022/11/20 04:50:18;;;;;;;4.10;2.65;;;;;;;4.54;100.00;98518.66;5110372;28;20050;-79
2022/11/20 04:52:44;;;;;;;4.20;2.78;;;;;;;4.48;100.00;98484.31;5102504;28;20523;-79
2022/11/20 04:55:11;;;;;;;4.30;2.90;;;;;;;4.53;100.00;98500.84;5109475;28;20055;-79
2022/11/20 04:57:37;;;;;;;6.93;3.10;;;;;;;4.55;100.00;98512.28;5111157;28;20048;-79
2022/11/20 05:00:07;;;;;;;4.93;2.58;;;;;;;4.41;100.00;98497.59;5108785;28;20043;-78
2022/11/20 05:02:33;;;;;;;6.30;2.70;;;;;;;4.58;100.00;98501.19;5107391;28;20044;-78
2022/11/20 05:05:00;;;;;;;5.93;2.85;;;;;;;4.44;100.00;98485.63;5094374;28;20058;-79
2022/11/20 05:07:26;;;;;;;5.60;2.70;;;;;;;4.57;100.00;98490.56;5095474;28;20055;-78
2022/11/20 05:09:53;;;;;;;5.28;3.13;;;;;;;4.45;100.00;98475.75;5099329;28;20044;-78
2022/11/20 05:12:19;;;;;;;4.28;3.25;;;;;;;4.46;100.00;98491.72;5103239;28;20044;-79
2022/11/20 05:14:46;;;;;;;6.30;3.05;;;;;;;4.62;100.00;98496.31;5095908;28;20044;-79
2022/11/20 05:17:14;;;;;;;5.05;3.35;;;;;;;4.56;100.00;98468.22;5095925;28;20044;-79
2022/11/20 05:19:40;;;;;;;10.13;3.42;;;;;;;4.51;100.00;98481.28;5100911;28;20044;-79
2022/11/20 05:22:07;;;;;;;4.03;2.78;;;;;;;4.50;100.00;98497.63;5109493;28;20051;-79
2022/11/20 05:24:33;;;;;;;5.97;3.25;;;;;;;4.64;100.00;98499.69;5103987;28;20083;-79
2022/11/20 05:27:00;;;;;;;4.43;3.22;;;;;;;4.63;100.00;98497.16;5104434;28;20040;-79
2022/11/20 05:29:26;;;;;;;3.78;2.83;;;;;;;4.55;100.00;98479.13;5097033;28;20047;-79
2022/11/20 05:31:53;;;;;;;4.25;3.25;;;;;;;4.58;100.00;98490.41;5107116;28;20513;-79
2022/11/20 05:34:21;;;;;;;4.22;3.08;;;;;;;4.72;100.00;98501.56;5104205;28;20044;-79
2022/11/20 05:36:47;;;;;;;5.35;2.95;;;;;;;4.54;100.00;98480.97;5107596;28;20755;-79
2022/11/20 05:39:14;;;;;;;4.00;2.75;;;;;;;4.48;100.00;98481.63;5095576;28;20626;-79
2022/11/20 05:41:41;;;;;;;3.90;3.08;;;;;;;4.53;100.00;98490.06;5106259;28;20055;-79
2022/11/20 05:44:07;;;;;;;5.28;2.90;;;;;;;4.51;100.00;98486.69;5103170;28;20169;-79
2022/11/20 05:46:34;;;;;;;6.88;2.67;;;;;;;4.47;100.00;98488.03;5105680;28;20063;-79
2022/11/20 05:49:00;;;;;;;4.38;2.75;;;;;;;4.33;100.00;98476.00;5091272;28;20047;-79
2022/11/20 05:51:28;;;;;;;4.05;2.90;;;;;;;4.48;100.00;98491.56;5104739;28;20083;-79
2022/11/20 05:53:57;;;;;;;10.55;4.05;;;;;;;4.59;100.00;98496.63;5105729;28;20046;-79
2022/11/20 05:56:23;;;;;;;6.45;2.63;;;;;;;4.48;100.00;98478.94;5107141;28;20132;-79
2022/11/20 05:58:50;;;;;;;3.72;2.60;;;;;;;4.43;100.00;98478.59;5105820;28;20056;-79
2022/11/20 06:01:19;;;;;;;4.32;2.80;;;;;;;4.58;100.00;98494.97;5106868;28;20048;-79
2022/11/20 06:03:47;;;;;;;4.55;2.33;;;;;;;4.42;100.00;98471.50;5105879;28;20043;-79
2022/11/20 06:06:14;;;;;;;3.40;2.53;;;;;;;4.53;100.00;98492.75;5093144;28;20430;-79
2022/11/20 06:08:43;;;;;;;3.78;2.33;;;;;;;4.32;100.00;98463.59;5093378;28;20050;-79
2022/11/20 06:11:11;;;;;;;9.20;2.58;;;;;;;4.35;100.00;98473.16;5099240;28;20047;-79
2022/11/20 06:13:37;;;;;;;4.65;2.47;;;;;;;4.45;100.00;98489.19;5097337;28;20134;-79
2022/11/20 06:16:05;;;;;;;4.57;2.92;;;;;;;4.32;100.00;98463.59;5096525;28;20133;-79
2022/11/20 06:18:31;;;;;;;7.25;3.60;;;;;;;4.53;100.00;98494.59;5094126;28;20506;-79
2022/11/20 06:21:03;;;;;;;5.32;2.50;;;;;;;4.37;100.00;98466.63;5096768;28;20048;-79
2022/11/20 06:23:31;;;;;;;3.40;2.47;;;;;;;4.47;100.00;98465.63;5103655;28;20116;-79
2022/11/20 06:26:01;;;;;;;5.90;3.00;;;;;;;4.57;100.00;98485.19;5104007;28;20050;-79
2022/11/20 06:28:28;;;;;;;5.78;3.10;;;;;;;4.56;100.00;98483.50;5093563;28;20525;-79
2022/11/20 06:30:54;;;;;;;4.00;2.92;;;;;;;4.37;100.00;98463.94;5107162;28;20058;-79
2022/11/20 06:33:23;;;;;;;5.72;2.53;;;;;;;4.56;100.00;98488.88;5103267;28;20043;-79
2022/11/20 06:35:50;;;;;;;4.50;3.03;;;;;;;4.41;100.00;98465.28;5100745;28;20503;-79
2022/11/20 06:38:17;;;;;;;5.75;2.92;;;;;;;4.36;100.00;98459.53;5099004;28;20156;-80
2022/11/20 06:40:44;;;;;;;5.00;2.67;;;;;;;4.37;100.00;98453.16;5102441;28;20144;-79
2022/11/20 06:43:12;;;;;;;7.97;2.85;;;;;;;4.36;100.00;98456.03;5106275;28;20044;-79
2022/11/20 06:45:39;;;;;;;3.45;2.50;;;;;;;4.51;100.00;98477.78;5103067;28;20044;-79
2022/11/20 06:48:07;;;;;;;4.35;2.53;;;;;;;4.48;100.00;98465.47;5102826;28;20040;-79
2022/11/20 06:50:34;;;;;;;3.88;2.70;;;;;;;4.57;100.00;98467.19;5110599;28;20052;-79
2022/11/20 06:53:03;;;;;;;3.85;2.63;;;;;;;4.53;100.00;98465.84;5099431;28;20040;-79
2022/11/20 06:55:30;;;;;;;7.07;2.95;;;;;;;4.48;100.00;98459.25;5095494;28;20683;-79
2022/11/20 06:57:56;;;;;;;3.60;2.35;;;;;;;4.54;100.00;98469.38;5108873;28;20039;-79
2022/11/20 07:00:24;;;;;;;2.95;2.15;;;;;;;4.52;100.00;98463.31;5102567;28;20051;-79
2022/11/20 07:02:51;;;;;;;3.75;2.83;;;;;;;4.57;100.00;98491.41;5107041;28;20181;-79
2022/11/20 07:05:18;;;;;;;4.13;2.15;;;;;;;4.61;100.00;98492.78;5110614;28;20048;-80
2022/11/20 07:07:45;;;;;;;4.25;2.60;;;;;;;4.56;100.00;98481.66;5093494;28;20062;-79
2022/11/20 07:10:12;;;;;;;8.68;2.58;;;;;;;4.55;100.00;98471.06;5090996;28;20047;-79
2022/11/20 07:12:38;;;;;;;4.47;2.40;;;;;;;4.72;100.00;98505.09;5097026;28;20462;-79
2022/11/20 07:15:06;;;;;;;2.97;2.20;;;;;;;4.70;100.00;98490.13;5093973;28;20515;-79
2022/11/20 07:17:34;;;;;;;3.20;2.28;;;;;;;4.73;100.00;98487.09;5090085;28;20047;-79
2022/11/20 07:20:01;;;;;;;3.33;2.80;;;;;;;4.78;100.00;98498.22;5098974;28;20048;-79
2022/11/20 07:22:27;;;;;;;6.25;2.80;;;;;;;4.73;100.00;98496.00;5099240;28;20044;-79
2022/11/20 07:24:54;;;;;;;4.95;2.22;;;;;;;4.79;100.00;98506.13;5099069;28;20044;-79
2022/11/20 07:27:20;;;;;;;5.38;3.05;;;;;;;4.81;100.00;98499.75;5102298;28;20046;-79
2022/11/20 07:29:47;;;;;;;4.40;2.72;;;;;;;4.86;100.00;98505.47;5104228;28;20052;-79
2022/11/20 07:32:13;;;;;;;5.00;2.97;;;;;;;4.74;100.00;98496.84;5095970;28;20147;-79
2022/11/20 07:34:41;;;;;;;5.57;3.15;;;;;;;4.74;100.00;98497.72;5101353;28;20495;-79
2022/11/20 07:37:08;;;;;;;5.30;2.92;;;;;;;4.79;100.00;98508.81;5094912;28;20126;-79
2022/11/20 07:39:34;;;;;;;3.00;2.45;;;;;;;4.87;100.00;98523.31;5098497;28;20044;-79
2022/11/20 07:42:01;;;;;;;5.63;3.00;;;;;;;4.91;100.00;98512.06;5099389;28;20121;-79
2022/11/20 07:44:28;;;;;;;5.65;3.75;;;;;;;5.01;100.00;98511.06;5103269;28;20142;-79
2022/11/20 07:46:54;;;;;;;6.18;3.40;;;;;;;4.94;100.00;98532.44;5101999;28;20047;-79
2022/11/20 07:49:24;;;;;;;3.55;2.95;;;;;;;4.90;100.00;98528.38;5104557;28;20047;-79
2022/11/20 07:51:53;;;;;;;6.07;3.55;;;;;;;4.93;100.00;98523.50;5101410;28;20123;-78
2022/11/20 07:54:20;;;;;;;6.43;3.17;;;;;;;4.88;100.00;98501.63;5100603;28;20052;-79
2022/11/20 07:56:46;;;;;;;4.07;3.25;;;;;;;4.92;100.00;98523.66;5100773;28;20063;-79
2022/11/20 07:59:13;;;;;;;6.15;3.10;;;;;;;5.01;100.00;98529.91;5101197;28;20048;-79
2022/11/20 08:01:40;;;;;;;6.78;3.25;;;;;;;4.96;100.00;98511.56;5100536;28;20401;-79
2022/11/20 08:04:07;;;;;;;3.63;2.95;;;;;;;4.93;100.00;98501.13;5106628;28;20044;-79
2022/11/20 08:06:34;;;;;;;4.35;3.05;;;;;;;4.99;100.00;98519.31;5106512;28;20138;-79
2022/11/20 08:09:02;;;;;;;3.20;2.40;;;;;;;5.06;100.00;98527.56;5093405;28;20051;-79
2022/11/20 08:14:13;;;;;;;6.70;3.70;;;;;;;5.03;100.00;98523.38;5090132;28;20154;-79
2022/11/20 08:16:39;;;;;;;4.47;2.90;;;;;;;4.97;100.00;98515.94;5107618;28;20051;-79
2022/11/20 08:19:09;;;;;;;4.72;2.35;;;;;;;5.11;100.00;98530.63;5108697;28;20130;-79
2022/11/20 08:21:47;;;;;;;4.05;2.65;;;;;;;5.11;100.00;98533.31;5106470;28;20048;-79
2022/11/20 08:24:30;;;;;;;4.30;3.10;;;;;;;5.07;100.00;98505.00;5148575;27;20393;-78
2022/11/20 08:26:58;;;;;;;3.42;2.60;;;;;;;5.05;100.00;98509.72;5151244;27;20081;-79
2022/11/20 08:29:25;;;;;;;4.63;2.80;;;;;;;5.22;100.00;98542.94;5151253;27;20047;-79
2022/11/20 08:31:52;;;;;;;7.18;3.17;;;;;;;5.03;100.00;98528.75;5150199;27;20512;-78
2022/11/20 08:34:18;;;;;;;3.67;2.67;;;;;;;5.07;100.00;98530.13;5150252;27;20421;-78
2022/11/20 08:36:48;;;;;;;4.35;2.72;;;;;;;5.00;100.00;98526.41;5143491;27;20409;-79
2022/11/20 08:39:14;;;;;;;3.60;2.90;;;;;;;5.04;100.00;98535.81;5140038;27;20073;-78
2022/11/20 08:41:42;;;;;;;4.32;3.05;;;;;;;5.10;100.00;98528.91;5151127;27;20051;-79
2022/11/20 08:44:09;;;;;;;4.07;2.65;;;;;;;5.24;100.00;98533.69;5143192;27;20043;-78
2022/11/20 08:46:40;;;;;;;5.18;3.05;;;;;;;5.17;100.00;98529.94;5142974;27;20043;-79
2022/11/20 08:49:08;;;;;;;3.92;2.53;;;;;;;5.18;100.00;98526.25;5150851;27;20057;-78
2022/11/20 08:51:35;;;;;;;6.57;3.22;;;;;;;5.17;100.00;98512.94;5149916;27;20046;-78
2022/11/20 08:54:02;;;;;;;4.60;3.42;;;;;;;5.12;100.00;98530.44;5149042;27;20427;-78
2022/11/20 08:56:29;;;;;;;6.55;2.75;;;;;;;5.29;100.00;98560.13;5145654;27;20046;-78
2022/11/20 08:58:57;;;;;;;3.25;2.50;;;;;;;5.12;100.00;98537.69;5147300;27;20047;-78
2022/11/20 09:01:24;;;;;;;6.47;3.42;;;;;;;5.09;100.00;98544.25;5132110;27;20145;-78
2022/11/20 09:03:51;;;;;;;5.53;3.30;;;;;;;5.21;100.00;98558.25;5134460;27;20057;-78
2022/11/20 09:06:18;;;;;;;5.10;3.13;;;;;;;5.18;100.00;98563.97;5139147;27;20492;-78
2022/11/20 09:08:44;;;;;;;7.18;3.88;;;;;;;5.20;100.00;98561.97;5143087;27;20054;-78
2022/11/20 09:11:11;;;;;;;6.88;3.45;;;;;;;5.27;100.00;98559.47;5143137;27;20065;-78
2022/11/20 09:13:38;;;;;;;6.07;3.22;;;;;;;5.17;100.00;98548.81;5133226;27;20051;-79
2022/11/20 09:16:08;;;;;;;4.65;3.67;;;;;;;5.26;100.00;98538.91;5139154;27;20048;-78
2022/11/20 09:18:37;;;;;;;5.25;2.78;;;;;;;5.31;100.00;98550.00;5146860;27;20125;-79
2022/11/20 09:21:07;;;;;;;6.22;3.55;;;;;;;5.26;100.00;98550.50;5148123;27;20041;-79
2022/11/20 09:23:35;;;;;;;6.47;3.55;;;;;;;5.27;100.00;98540.59;5133928;27;20046;-78
2022/11/20 09:26:03;;;;;;;8.05;3.13;;;;;;;5.27;100.00;98549.50;5137950;27;20043;-79
2022/11/20 09:28:30;;;;;;;4.25;2.88;;;;;;;5.29;100.00;98560.13;5144483;27;20050;-79
2022/11/20 09:30:57;;;;;;;4.18;3.00;;;;;;;5.21;100.00;98558.25;5138488;27;20050;-79
2022/11/20 09:33:27;;;;;;;6.15;4.20;;;;;;;5.20;100.00;98551.19;5136475;27;20066;-79
2022/11/20 09:35:54;;;;;;;6.22;4.10;;;;;;;5.33;100.00;98561.50;5132197;27;20489;-79
2022/11/20 09:38:20;;;;;;;4.93;3.67;;;;;;;5.30;100.00;98561.81;5129544;27;20075;-78
2022/11/20 09:40:56;;;;;;;9.23;4.07;;;;;;;5.48;100.00;98569.75;5132906;27;20054;-78
2022/11/20 09:43:33;;;;;;;5.85;3.35;;;;;;;5.37;100.00;98551.19;5132930;27;20150;-79
2022/11/20 09:46:08;;;;;;;6.93;4.35;;;;;;;5.47;100.00;98541.94;5113925;27;20399;-78
2022/11/20 09:48:51;;;;;;;12.57;3.83;;;;;;;5.65;100.00;98571.44;5128289;27;20050;-78
2022/11/20 09:51:27;;;;;;;6.07;3.80;;;;;;;5.67;100.00;98561.34;5113665;27;20423;-79
2022/11/20 09:54:07;;;;;;;8.13;4.10;;;;;;;5.70;100.00;98567.41;5123171;27;20054;-79
2022/11/20 09:56:38;;;;;;;5.43;2.88;;;;;;;5.70;100.00;98559.31;5126216;27;20052;-78
2022/11/20 09:59:07;;;;;;;4.05;2.58;;;;;;;5.75;100.00;98562.34;5130122;27;20050;-79
2022/11/20 10:01:38;;;;;;;6.55;3.65;;;;;;;5.69;100.00;98545.00;5122222;27;20243;-78
2022/11/20 10:04:11;;;;;;;5.70;3.35;;;;;;;5.79;100.00;98571.78;5127555;27;20035;-79
2022/11/20 10:06:44;;;;;;;5.72;4.30;;;;;;;5.72;100.00;98550.06;5115291;27;20043;-78
2022/11/20 10:09:22;;;;;;;5.32;4.38;;;;;;;5.76;100.00;98558.63;5113694;27;20055;-79
2022/11/20 10:11:59;;;;;;;9.48;5.10;;;;;;;5.86;100.00;98559.31;5133260;27;20486;-79
2022/11/20 10:14:36;;;;;;;7.45;4.22;;;;;;;5.81;100.00;98558.97;5132883;27;20047;-80
2022/11/20 10:17:14;;;;;;;3.33;2.28;;;;;;;5.66;100.00;98551.56;5124396;27;20131;-80
2022/11/20 10:20:02;;;;;;;3.15;2.45;;;;;;;5.83;100.00;98567.75;5124437;27;20050;-80
2022/11/20 10:22:45;;;;;;;10.27;3.47;;;;;;;5.81;100.00;98550.88;5128047;27;20042;-80
2022/11/20 10:25:15;;;;;;;3.53;2.40;;;;;;;5.77;100.00;98547.69;5132292;27;20054;-80
2022/11/20 10:27:59;;;;;;;;;;;;;;;5.90;100.00;98552.56;5125507;27;20047;-79
2022/11/20 10:30:26;;;;;;;2.97;2.20;;;;;;;5.76;100.00;98559.47;5125360;27;19920;-79
2022/11/20 10:32:59;;;;;;;6.47;2.65;;;;;;;5.70;100.00;98545.84;5129688;27;20043;-80
2022/11/20 10:35:33;;;;;;;2.70;2.17;;;;;;;5.78;100.00;98567.41;5127595;27;20046;-80
2022/11/20 10:38:03;;;;;;;3.08;2.13;;;;;;;5.67;100.00;98558.66;5116465;27;20047;-80
2022/11/20 10:40:35;;;;;;;4.35;2.08;;;;;;;5.79;100.00;98574.50;5120098;27;20047;-80
2022/11/20 10:43:09;;;;;;;3.50;2.65;;;;;;;5.67;100.00;98555.97;5128345;27;20043;-81
2022/11/20 10:45:45;;;;;;;3.67;2.50;;;;;;;5.90;100.00;98586.78;5119407;27;20134;-80
2022/11/20 10:48:18;;;;;;;5.75;2.63;;;;;;;5.80;100.00;98568.91;5123408;27;20067;-80
2022/11/20 10:51:19;;;;;;;4.13;3.22;;;;;;;5.89;100.00;98556.28;5124599;27;20059;-81
2022/11/20 10:53:56;;;;;;;4.88;2.63;;;;;;;6.03;100.00;98557.47;5088669;27;20045;-80
2022/11/20 10:56:31;;;;;;;3.22;2.33;;;;;;;5.98;100.00;98551.75;5130359;27;20054;-80
2022/11/20 10:59:14;;;;;;;2.67;1.77;;;;;;;6.00;100.00;98553.25;5118834;27;20043;-80
2022/11/20 11:01:42;;;;;;;5.00;2.53;;;;;;;6.07;100.00;98560.66;5125113;27;20048;-81
2022/11/20 11:04:27;;;;;;;3.45;2.08;;;;;;;5.99;100.00;98554.28;5122157;27;20062;-80
2022/11/20 11:07:03;;;;;;;2.83;1.80;;;;;;;6.07;100.00;98574.16;5123031;27;20040;-80
2022/11/20 11:09:35;;;;;;;4.13;1.98;;;;;;;5.90;100.00;98554.41;5128248;27;20055;-80
2022/11/20 11:12:01;;;;;;;2.38;2.17;;;;;;;6.03;100.00;98562.88;5131930;27;20039;-80
2022/11/20 11:14:28;;;;;;;2.17;1.60;;;;;;;5.92;100.00;98553.25;5125999;27;20151;-80
2022/11/20 11:16:57;;;;;;;2.45;2.20;;;;;;;6.04;100.00;98564.56;5130754;27;20120;-81
2022/11/20 11:19:24;;;;;;;2.83;1.87;;;;;;;6.07;100.00;98564.22;5122866;27;20421;-81
2022/11/20 11:21:54;;;;;;;2.88;2.10;;;;;;;5.98;100.00;98552.59;5128560;27;20126;-80
2022/11/20 11:24:24;;;;;;;2.92;2.15;;;;;;;5.84;100.00;98521.72;5124792;27;20129;-80
2022/11/20 11:26:57;;;;;;;;;;;;;;;6.03;100.00;98539.41;5119120;27;20043;-80
2022/11/20 11:29:23;;;;;;;3.47;2.42;;;;;;;5.86;100.00;98521.56;5128281;27;19919;-80
2022/11/20 11:31:50;;;;;;;3.97;2.28;;;;;;;5.88;100.00;98514.13;5120419;27;20051;-80
2022/11/20 11:34:18;;;;;;;3.67;2.65;;;;;;;5.94;100.00;98510.72;5110099;28;20075;-80
2022/11/20 11:36:59;;;;;;;5.78;2.60;;;;;;;5.96;100.00;98522.22;5128744;27;20138;-81
2022/11/20 11:39:29;;;;;;;6.32;3.30;;;;;;;5.97;100.00;98501.50;5122175;27;20496;-80
2022/11/20 11:41:56;;;;;;;6.45;2.78;;;;;;;6.20;100.00;98526.75;5128360;27;20159;-80
2022/11/20 11:47:23;;;;;;;3.67;2.70;;;;;;;6.37;100.00;98524.84;5126351;27;20073;-80